sensor_id;sensor_type;location;lat;lon;timestamp;pressure;altitude;pressure_sealevel;temperature
15845;BMP180;50807;52.436;13.346;2024-03-22T00:00:08;101647.00;;;13.30
15845;BMP180;50807;52.436;13.346;2024-03-22T00:00:42;101643.00;;;13.30
15845;BMP180;50807;52.436;13.346;2024-03-22T00:01:12;101650.00;;;13.30
15845;BMP180;50807;52.436;13.346;2024-03-22T00:01:44;101646.00;;;13.30
15845;BMP180;50807;52.436;13.346;2024-03-22T00:02:15;101646.00;;;13.30
15845;BMP180;50807;52.436;13.346;2024-03-22T00:02:46;101643.00;;;13.40
15845;BMP180;50807;52.436;13.346;2024-03-22T00:03:17;101635.00;;;13.30
15845;BMP180;50807;52.436;13.346;2024-03-22T00:03:49;101646.00;;;13.30
15845;BMP180;50807;52.436;13.346;2024-03-22T00:04:20;101631.00;;;13.30
15845;BMP180;50807;52.436;13.346;2024-03-22T00:04:51;101637.00;;;13.30
15845;BMP180;50807;52.436;13.346;2024-03-22T00:05:23;101635.00;;;13.30
15845;BMP180;50807;52.436;13.346;2024-03-22T00:05:54;101644.00;;;13.30
15845;BMP180;50807;52.436;13.346;2024-03-22T00:06:24;101635.00;;;13.30
15845;BMP180;50807;52.436;13.346;2024-03-22T00:06:55;101637.00;;;13.30
15845;BMP180;50807;52.436;13.346;2024-03-22T00:07:26;101639.00;;;13.30
15845;BMP180;50807;52.436;13.346;2024-03-22T00:07:58;101637.00;;;13.30
15845;BMP180;50807;52.436;13.346;2024-03-22T00:08:30;101634.00;;;13.20
15845;BMP180;50807;52.436;13.346;2024-03-22T00:09:01;101638.00;;;13.20
15845;BMP180;50807;52.436;13.346;2024-03-22T00:09:32;101626.00;;;13.20
15845;BMP180;50807;52.436;13.346;2024-03-22T00:10:03;101632.00;;;13.20
15845;BMP180;50807;52.436;13.346;2024-03-22T00:10:34;101631.00;;;13.20
15845;BMP180;50807;52.436;13.346;2024-03-22T00:11:04;101628.00;;;13.20
15845;BMP180;50807;52.436;13.346;2024-03-22T00:11:35;101633.00;;;13.20
15845;BMP180;50807;52.436;13.346;2024-03-22T00:12:07;101630.00;;;13.20
15845;BMP180;50807;52.436;13.346;2024-03-22T00:12:38;101621.00;;;13.20
15845;BMP180;50807;52.436;13.346;2024-03-22T00:13:09;101630.00;;;13.10
15845;BMP180;50807;52.436;13.346;2024-03-22T00:13:39;101636.00;;;13.20
15845;BMP180;50807;52.436;13.346;2024-03-22T00:14:11;101624.00;;;13.20
15845;BMP180;50807;52.436;13.346;2024-03-22T00:14:42;101629.00;;;13.20
15845;BMP180;50807;52.436;13.346;2024-03-22T00:15:13;101631.00;;;13.10
15845;BMP180;50807;52.436;13.346;2024-03-22T00:15:45;101629.00;;;13.10
15845;BMP180;50807;52.436;13.346;2024-03-22T00:16:16;101641.00;;;13.10
15845;BMP180;50807;52.436;13.346;2024-03-22T00:16:46;101636.00;;;13.20
15845;BMP180;50807;52.436;13.346;2024-03-22T00:17:17;101640.00;;;13.10
15845;BMP180;50807;52.436;13.346;2024-03-22T00:17:48;101634.00;;;13.10
15845;BMP180;50807;52.436;13.346;2024-03-22T00:18:19;101636.00;;;13.10
15845;BMP180;50807;52.436;13.346;2024-03-22T00:18:49;101633.00;;;13.10
15845;BMP180;50807;52.436;13.346;2024-03-22T00:19:20;101633.00;;;13.10
15845;BMP180;50807;52.436;13.346;2024-03-22T00:19:52;101631.00;;;13.10
15845;BMP180;50807;52.436;13.346;2024-03-22T00:20:23;101639.00;;;13.10
15845;BMP180;50807;52.436;13.346;2024-03-22T00:20:53;101631.00;;;13.10
15845;BMP180;50807;52.436;13.346;2024-03-22T00:21:24;101629.00;;;13.10
15845;BMP180;50807;52.436;13.346;2024-03-22T00:21:55;101628.00;;;13.20
15845;BMP180;50807;52.436;13.346;2024-03-22T00:22:26;101618.00;;;13.10
15845;BMP180;50807;52.436;13.346;2024-03-22T00:22:58;101631.00;;;13.10
15845;BMP180;50807;52.436;13.346;2024-03-22T00:23:29;101634.00;;;13.20
15845;BMP180;50807;52.436;13.346;2024-03-22T00:24:01;101632.00;;;13.10
15845;BMP180;50807;52.436;13.346;2024-03-22T00:24:32;101632.00;;;13.20
15845;BMP180;50807;52.436;13.346;2024-03-22T00:25:04;101628.00;;;13.20
15845;BMP180;50807;52.436;13.346;2024-03-22T00:25:37;101628.00;;;13.20
15845;BMP180;50807;52.436;13.346;2024-03-22T00:26:07;101620.00;;;13.20
15845;BMP180;50807;52.436;13.346;2024-03-22T00:26:38;101631.00;;;13.20
15845;BMP180;50807;52.436;13.346;2024-03-22T00:27:09;101630.00;;;13.20
15845;BMP180;50807;52.436;13.346;2024-03-22T00:27:42;101636.00;;;13.20
15845;BMP180;50807;52.436;13.346;2024-03-22T00:28:13;101622.00;;;13.20
15845;BMP180;50807;52.436;13.346;2024-03-22T00:28:44;101627.00;;;13.20
15845;BMP180;50807;52.436;13.346;2024-03-22T00:29:15;101627.00;;;13.20
15845;BMP180;50807;52.436;13.346;2024-03-22T00:29:46;101622.00;;;13.20
15845;BMP180;50807;52.436;13.346;2024-03-22T00:30:17;101622.00;;;13.20
15845;BMP180;50807;52.436;13.346;2024-03-22T00:30:48;101621.00;;;13.20
15845;BMP180;50807;52.436;13.346;2024-03-22T00:31:19;101627.00;;;13.20
15845;BMP180;50807;52.436;13.346;2024-03-22T00:31:49;101618.00;;;13.20
15845;BMP180;50807;52.436;13.346;2024-03-22T00:32:21;101622.00;;;13.10
15845;BMP180;50807;52.436;13.346;2024-03-22T00:32:52;101615.00;;;13.20
15845;BMP180;50807;52.436;13.346;2024-03-22T00:33:22;101608.00;;;13.10
15845;BMP180;50807;52.436;13.346;2024-03-22T00:33:53;101614.00;;;13.10
15845;BMP180;50807;52.436;13.346;2024-03-22T00:34:24;101621.00;;;13.10
15845;BMP180;50807;52.436;13.346;2024-03-22T00:34:55;101607.00;;;13.10
15845;BMP180;50807;52.436;13.346;2024-03-22T00:35:26;101606.00;;;13.10
15845;BMP180;50807;52.436;13.346;2024-03-22T00:35:57;101608.00;;;13.20
15845;BMP180;50807;52.436;13.346;2024-03-22T00:36:28;101609.00;;;13.20
15845;BMP180;50807;52.436;13.346;2024-03-22T00:36:58;101608.00;;;13.10
15845;BMP180;50807;52.436;13.346;2024-03-22T00:37:29;101605.00;;;13.20
15845;BMP180;50807;52.436;13.346;2024-03-22T00:38:01;101594.00;;;13.10
15845;BMP180;50807;52.436;13.346;2024-03-22T00:38:33;101607.00;;;13.10
15845;BMP180;50807;52.436;13.346;2024-03-22T00:39:04;101594.00;;;13.10
15845;BMP180;50807;52.436;13.346;2024-03-22T00:39:35;101580.00;;;13.10
15845;BMP180;50807;52.436;13.346;2024-03-22T00:40:07;101595.00;;;13.10
15845;BMP180;50807;52.436;13.346;2024-03-22T00:40:38;101593.00;;;13.10
15845;BMP180;50807;52.436;13.346;2024-03-22T00:41:09;101589.00;;;13.10
15845;BMP180;50807;52.436;13.346;2024-03-22T00:41:40;101593.00;;;13.10
15845;BMP180;50807;52.436;13.346;2024-03-22T00:42:10;101579.00;;;13.10
15845;BMP180;50807;52.436;13.346;2024-03-22T00:42:42;101593.00;;;13.10
15845;BMP180;50807;52.436;13.346;2024-03-22T00:43:13;101588.00;;;13.10
15845;BMP180;50807;52.436;13.346;2024-03-22T00:43:43;101594.00;;;13.10
15845;BMP180;50807;52.436;13.346;2024-03-22T00:44:14;101586.00;;;13.00
15845;BMP180;50807;52.436;13.346;2024-03-22T00:44:45;101596.00;;;13.10
15845;BMP180;50807;52.436;13.346;2024-03-22T00:45:16;101590.00;;;13.10
15845;BMP180;50807;52.436;13.346;2024-03-22T00:45:47;101601.00;;;13.00
15845;BMP180;50807;52.436;13.346;2024-03-22T00:46:17;101594.00;;;13.10
15845;BMP180;50807;52.436;13.346;2024-03-22T00:46:49;101590.00;;;13.00
15845;BMP180;50807;52.436;13.346;2024-03-22T00:47:20;101595.00;;;13.10
15845;BMP180;50807;52.436;13.346;2024-03-22T00:47:50;101595.00;;;13.00
15845;BMP180;50807;52.436;13.346;2024-03-22T00:48:21;101600.00;;;13.00
15845;BMP180;50807;52.436;13.346;2024-03-22T00:48:52;101596.00;;;13.00
15845;BMP180;50807;52.436;13.346;2024-03-22T00:49:23;101598.00;;;13.00
15845;BMP180;50807;52.436;13.346;2024-03-22T00:49:55;101590.00;;;13.00
15845;BMP180;50807;52.436;13.346;2024-03-22T00:50:25;101594.00;;;13.00
15845;BMP180;50807;52.436;13.346;2024-03-22T00:50:56;101594.00;;;13.00
15845;BMP180;50807;52.436;13.346;2024-03-22T00:51:28;101560.00;;;13.00
15845;BMP180;50807;52.436;13.346;2024-03-22T00:51:59;101590.00;;;13.00
15845;BMP180;50807;52.436;13.346;2024-03-22T00:52:29;101587.00;;;13.00
15845;BMP180;50807;52.436;13.346;2024-03-22T00:53:02;101589.00;;;13.00
15845;BMP180;50807;52.436;13.346;2024-03-22T00:53:35;101588.00;;;13.00
15845;BMP180;50807;52.436;13.346;2024-03-22T00:54:06;101588.00;;;13.00
15845;BMP180;50807;52.436;13.346;2024-03-22T00:54:37;101593.00;;;13.00
15845;BMP180;50807;52.436;13.346;2024-03-22T00:55:10;101583.00;;;13.00
15845;BMP180;50807;52.436;13.346;2024-03-22T00:55:41;101589.00;;;13.00
15845;BMP180;50807;52.436;13.346;2024-03-22T00:56:12;101584.00;;;13.00
15845;BMP180;50807;52.436;13.346;2024-03-22T00:56:43;101589.00;;;13.00
15845;BMP180;50807;52.436;13.346;2024-03-22T00:57:14;101591.00;;;13.00
15845;BMP180;50807;52.436;13.346;2024-03-22T00:57:45;101596.00;;;13.00
15845;BMP180;50807;52.436;13.346;2024-03-22T00:58:16;101596.00;;;13.00
15845;BMP180;50807;52.436;13.346;2024-03-22T00:58:47;101589.00;;;13.00
15845;BMP180;50807;52.436;13.346;2024-03-22T00:59:18;101598.00;;;13.00
15845;BMP180;50807;52.436;13.346;2024-03-22T00:59:49;101594.00;;;13.00
15845;BMP180;50807;52.436;13.346;2024-03-22T01:00:20;101591.00;;;13.00
15845;BMP180;50807;52.436;13.346;2024-03-22T01:00:50;101594.00;;;13.00
15845;BMP180;50807;52.436;13.346;2024-03-22T01:01:22;101587.00;;;12.90
15845;BMP180;50807;52.436;13.346;2024-03-22T01:01:53;101588.00;;;12.90
15845;BMP180;50807;52.436;13.346;2024-03-22T01:02:24;101591.00;;;12.90
15845;BMP180;50807;52.436;13.346;2024-03-22T01:02:55;101585.00;;;12.90
15845;BMP180;50807;52.436;13.346;2024-03-22T01:03:25;101590.00;;;12.90
15845;BMP180;50807;52.436;13.346;2024-03-22T01:03:56;101589.00;;;13.00
15845;BMP180;50807;52.436;13.346;2024-03-22T01:04:27;101584.00;;;12.90
15845;BMP180;50807;52.436;13.346;2024-03-22T01:04:59;101585.00;;;12.90
15845;BMP180;50807;52.436;13.346;2024-03-22T01:05:29;101583.00;;;12.90
15845;BMP180;50807;52.436;13.346;2024-03-22T01:06:00;101588.00;;;12.90
15845;BMP180;50807;52.436;13.346;2024-03-22T01:06:31;101581.00;;;12.90
15845;BMP180;50807;52.436;13.346;2024-03-22T01:07:02;101578.00;;;12.90
15845;BMP180;50807;52.436;13.346;2024-03-22T01:07:33;101588.00;;;12.80
15845;BMP180;50807;52.436;13.346;2024-03-22T01:08:06;101576.00;;;12.80
15845;BMP180;50807;52.436;13.346;2024-03-22T01:08:37;101582.00;;;12.80
15845;BMP180;50807;52.436;13.346;2024-03-22T01:09:08;101583.00;;;12.80
15845;BMP180;50807;52.436;13.346;2024-03-22T01:09:39;101574.00;;;12.80
15845;BMP180;50807;52.436;13.346;2024-03-22T01:10:10;101574.00;;;12.80
15845;BMP180;50807;52.436;13.346;2024-03-22T01:10:41;101581.00;;;12.80
15845;BMP180;50807;52.436;13.346;2024-03-22T01:11:12;101577.00;;;12.80
15845;BMP180;50807;52.436;13.346;2024-03-22T01:11:44;101578.00;;;12.80
15845;BMP180;50807;52.436;13.346;2024-03-22T01:12:15;101577.00;;;12.80
15845;BMP180;50807;52.436;13.346;2024-03-22T01:12:46;101576.00;;;12.80
15845;BMP180;50807;52.436;13.346;2024-03-22T01:13:17;101568.00;;;12.70
15845;BMP180;50807;52.436;13.346;2024-03-22T01:13:47;101573.00;;;12.70
15845;BMP180;50807;52.436;13.346;2024-03-22T01:14:18;101559.00;;;12.70
15845;BMP180;50807;52.436;13.346;2024-03-22T01:14:49;101569.00;;;12.70
15845;BMP180;50807;52.436;13.346;2024-03-22T01:15:21;101570.00;;;12.70
15845;BMP180;50807;52.436;13.346;2024-03-22T01:15:52;101562.00;;;12.70
15845;BMP180;50807;52.436;13.346;2024-03-22T01:16:23;101569.00;;;12.70
15845;BMP180;50807;52.436;13.346;2024-03-22T01:16:54;101560.00;;;12.70
15845;BMP180;50807;52.436;13.346;2024-03-22T01:17:25;101565.00;;;12.70
15845;BMP180;50807;52.436;13.346;2024-03-22T01:17:56;101542.00;;;12.70
15845;BMP180;50807;52.436;13.346;2024-03-22T01:18:27;101557.00;;;12.60
15845;BMP180;50807;52.436;13.346;2024-03-22T01:18:59;101565.00;;;12.70
15845;BMP180;50807;52.436;13.346;2024-03-22T01:19:29;101560.00;;;12.70
15845;BMP180;50807;52.436;13.346;2024-03-22T01:20:00;101562.00;;;12.70
15845;BMP180;50807;52.436;13.346;2024-03-22T01:20:31;101555.00;;;12.70
15845;BMP180;50807;52.436;13.346;2024-03-22T01:21:02;101554.00;;;12.70
15845;BMP180;50807;52.436;13.346;2024-03-22T01:21:33;101554.00;;;12.60
15845;BMP180;50807;52.436;13.346;2024-03-22T01:22:04;101559.00;;;12.60
15845;BMP180;50807;52.436;13.346;2024-03-22T01:22:36;101550.00;;;12.60
15845;BMP180;50807;52.436;13.346;2024-03-22T01:23:09;101558.00;;;12.60
15845;BMP180;50807;52.436;13.346;2024-03-22T01:23:39;101561.00;;;12.60
15845;BMP180;50807;52.436;13.346;2024-03-22T01:24:10;101551.00;;;12.60
15845;BMP180;50807;52.436;13.346;2024-03-22T01:24:41;101558.00;;;12.60
15845;BMP180;50807;52.436;13.346;2024-03-22T01:25:12;101557.00;;;12.60
15845;BMP180;50807;52.436;13.346;2024-03-22T01:25:44;101561.00;;;12.60
15845;BMP180;50807;52.436;13.346;2024-03-22T01:26:16;101551.00;;;12.60
15845;BMP180;50807;52.436;13.346;2024-03-22T01:26:47;101555.00;;;12.60
15845;BMP180;50807;52.436;13.346;2024-03-22T01:27:18;101559.00;;;12.60
15845;BMP180;50807;52.436;13.346;2024-03-22T01:27:48;101557.00;;;12.60
15845;BMP180;50807;52.436;13.346;2024-03-22T01:28:19;101554.00;;;12.60
15845;BMP180;50807;52.436;13.346;2024-03-22T01:28:50;101553.00;;;12.60
15845;BMP180;50807;52.436;13.346;2024-03-22T01:29:21;101551.00;;;12.60
15845;BMP180;50807;52.436;13.346;2024-03-22T01:29:52;101553.00;;;12.60
15845;BMP180;50807;52.436;13.346;2024-03-22T01:30:23;101556.00;;;12.60
15845;BMP180;50807;52.436;13.346;2024-03-22T01:30:54;101550.00;;;12.60
15845;BMP180;50807;52.436;13.346;2024-03-22T01:31:25;101560.00;;;12.60
15845;BMP180;50807;52.436;13.346;2024-03-22T01:31:55;101551.00;;;12.60
15845;BMP180;50807;52.436;13.346;2024-03-22T01:32:26;101550.00;;;12.60
15845;BMP180;50807;52.436;13.346;2024-03-22T01:32:57;101556.00;;;12.60
15845;BMP180;50807;52.436;13.346;2024-03-22T01:33:28;101544.00;;;12.60
15845;BMP180;50807;52.436;13.346;2024-03-22T01:33:59;101550.00;;;12.60
15845;BMP180;50807;52.436;13.346;2024-03-22T01:34:30;101554.00;;;12.60
15845;BMP180;50807;52.436;13.346;2024-03-22T01:35:01;101543.00;;;12.60
15845;BMP180;50807;52.436;13.346;2024-03-22T01:35:32;101550.00;;;12.60
15845;BMP180;50807;52.436;13.346;2024-03-22T01:36:03;101546.00;;;12.60
15845;BMP180;50807;52.436;13.346;2024-03-22T01:36:35;101546.00;;;12.60
15845;BMP180;50807;52.436;13.346;2024-03-22T01:37:06;101545.00;;;12.60
15845;BMP180;50807;52.436;13.346;2024-03-22T01:37:38;101549.00;;;12.60
15845;BMP180;50807;52.436;13.346;2024-03-22T01:38:10;101545.00;;;12.60
15845;BMP180;50807;52.436;13.346;2024-03-22T01:38:41;101526.00;;;12.60
15845;BMP180;50807;52.436;13.346;2024-03-22T01:39:12;101547.00;;;12.60
15845;BMP180;50807;52.436;13.346;2024-03-22T01:39:44;101553.00;;;12.60
15845;BMP180;50807;52.436;13.346;2024-03-22T01:40:15;101551.00;;;12.60
15845;BMP180;50807;52.436;13.346;2024-03-22T01:40:47;101548.00;;;12.60
15845;BMP180;50807;52.436;13.346;2024-03-22T01:41:18;101539.00;;;12.60
15845;BMP180;50807;52.436;13.346;2024-03-22T01:41:49;101552.00;;;12.60
15845;BMP180;50807;52.436;13.346;2024-03-22T01:42:20;101549.00;;;12.60
15845;BMP180;50807;52.436;13.346;2024-03-22T01:42:53;101546.00;;;12.60
15845;BMP180;50807;52.436;13.346;2024-03-22T01:43:24;101549.00;;;12.60
15845;BMP180;50807;52.436;13.346;2024-03-22T01:43:55;101550.00;;;12.60
15845;BMP180;50807;52.436;13.346;2024-03-22T01:44:28;101556.00;;;12.60
15845;BMP180;50807;52.436;13.346;2024-03-22T01:44:59;101542.00;;;12.60
15845;BMP180;50807;52.436;13.346;2024-03-22T01:45:33;101547.00;;;12.50
15845;BMP180;50807;52.436;13.346;2024-03-22T01:46:04;101537.00;;;12.50
15845;BMP180;50807;52.436;13.346;2024-03-22T01:46:37;101540.00;;;12.50
15845;BMP180;50807;52.436;13.346;2024-03-22T01:47:08;101538.00;;;12.60
15845;BMP180;50807;52.436;13.346;2024-03-22T01:47:38;101537.00;;;12.60
15845;BMP180;50807;52.436;13.346;2024-03-22T01:48:11;101542.00;;;12.60
15845;BMP180;50807;52.436;13.346;2024-03-22T01:48:42;101540.00;;;12.50
15845;BMP180;50807;52.436;13.346;2024-03-22T01:49:15;101519.00;;;12.60
15845;BMP180;50807;52.436;13.346;2024-03-22T01:49:47;101527.00;;;12.60
15845;BMP180;50807;52.436;13.346;2024-03-22T01:50:18;101533.00;;;12.60
15845;BMP180;50807;52.436;13.346;2024-03-22T01:50:50;101535.00;;;12.50
15845;BMP180;50807;52.436;13.346;2024-03-22T01:51:22;101531.00;;;12.50
15845;BMP180;50807;52.436;13.346;2024-03-22T01:51:53;101530.00;;;12.60
15845;BMP180;50807;52.436;13.346;2024-03-22T01:52:24;101528.00;;;12.60
15845;BMP180;50807;52.436;13.346;2024-03-22T01:52:57;101530.00;;;12.60
15845;BMP180;50807;52.436;13.346;2024-03-22T01:53:29;101528.00;;;12.60
15845;BMP180;50807;52.436;13.346;2024-03-22T01:54:02;101528.00;;;12.60
15845;BMP180;50807;52.436;13.346;2024-03-22T01:54:34;101522.00;;;12.60
15845;BMP180;50807;52.436;13.346;2024-03-22T01:55:05;101527.00;;;12.60
15845;BMP180;50807;52.436;13.346;2024-03-22T01:55:37;101526.00;;;12.60
15845;BMP180;50807;52.436;13.346;2024-03-22T01:56:08;101531.00;;;12.60
15845;BMP180;50807;52.436;13.346;2024-03-22T01:56:40;101519.00;;;12.60
15845;BMP180;50807;52.436;13.346;2024-03-22T01:57:11;101523.00;;;12.60
15845;BMP180;50807;52.436;13.346;2024-03-22T01:57:42;101527.00;;;12.60
15845;BMP180;50807;52.436;13.346;2024-03-22T01:58:13;101516.00;;;12.60
15845;BMP180;50807;52.436;13.346;2024-03-22T01:58:45;101526.00;;;12.60
15845;BMP180;50807;52.436;13.346;2024-03-22T01:59:17;101520.00;;;12.60
15845;BMP180;50807;52.436;13.346;2024-03-22T01:59:51;101534.00;;;12.60
15845;BMP180;50807;52.436;13.346;2024-03-22T02:00:25;101523.00;;;12.60
15845;BMP180;50807;52.436;13.346;2024-03-22T02:00:56;101523.00;;;12.60
15845;BMP180;50807;52.436;13.346;2024-03-22T02:01:26;101515.00;;;12.60
15845;BMP180;50807;52.436;13.346;2024-03-22T02:01:57;101532.00;;;12.60
15845;BMP180;50807;52.436;13.346;2024-03-22T02:02:28;101526.00;;;12.60
15845;BMP180;50807;52.436;13.346;2024-03-22T02:02:59;101525.00;;;12.60
15845;BMP180;50807;52.436;13.346;2024-03-22T02:03:30;101522.00;;;12.60
15845;BMP180;50807;52.436;13.346;2024-03-22T02:04:01;101530.00;;;12.60
15845;BMP180;50807;52.436;13.346;2024-03-22T02:04:33;101524.00;;;12.60
15845;BMP180;50807;52.436;13.346;2024-03-22T02:05:12;101515.00;;;12.50
15845;BMP180;50807;52.436;13.346;2024-03-22T02:05:43;101514.00;;;12.60
15845;BMP180;50807;52.436;13.346;2024-03-22T02:06:14;101513.00;;;12.60
15845;BMP180;50807;52.436;13.346;2024-03-22T02:06:45;101512.00;;;12.60
15845;BMP180;50807;52.436;13.346;2024-03-22T02:07:16;101519.00;;;12.60
15845;BMP180;50807;52.436;13.346;2024-03-22T02:07:48;101519.00;;;12.60
15845;BMP180;50807;52.436;13.346;2024-03-22T02:08:19;101519.00;;;12.60
15845;BMP180;50807;52.436;13.346;2024-03-22T02:08:51;101509.00;;;12.60
15845;BMP180;50807;52.436;13.346;2024-03-22T02:09:22;101522.00;;;12.60
15845;BMP180;50807;52.436;13.346;2024-03-22T02:09:52;101519.00;;;12.60
15845;BMP180;50807;52.436;13.346;2024-03-22T02:10:23;101512.00;;;12.60
15845;BMP180;50807;52.436;13.346;2024-03-22T02:10:55;101509.00;;;12.60
15845;BMP180;50807;52.436;13.346;2024-03-22T02:11:26;101507.00;;;12.60
15845;BMP180;50807;52.436;13.346;2024-03-22T02:11:57;101516.00;;;12.60
15845;BMP180;50807;52.436;13.346;2024-03-22T02:12:28;101510.00;;;12.60
15845;BMP180;50807;52.436;13.346;2024-03-22T02:12:59;101509.00;;;12.60
15845;BMP180;50807;52.436;13.346;2024-03-22T02:13:29;101505.00;;;12.60
15845;BMP180;50807;52.436;13.346;2024-03-22T02:14:00;101505.00;;;12.60
15845;BMP180;50807;52.436;13.346;2024-03-22T02:14:31;101508.00;;;12.60
15845;BMP180;50807;52.436;13.346;2024-03-22T02:15:03;101509.00;;;12.60
15845;BMP180;50807;52.436;13.346;2024-03-22T02:15:34;101506.00;;;12.60
15845;BMP180;50807;52.436;13.346;2024-03-22T02:16:06;101516.00;;;12.60
15845;BMP180;50807;52.436;13.346;2024-03-22T02:16:36;101513.00;;;12.60
15845;BMP180;50807;52.436;13.346;2024-03-22T02:17:07;101514.00;;;12.60
15845;BMP180;50807;52.436;13.346;2024-03-22T02:17:38;101509.00;;;12.60
15845;BMP180;50807;52.436;13.346;2024-03-22T02:18:09;101511.00;;;12.60
15845;BMP180;50807;52.436;13.346;2024-03-22T02:18:40;101504.00;;;12.60
15845;BMP180;50807;52.436;13.346;2024-03-22T02:19:11;101511.00;;;12.60
15845;BMP180;50807;52.436;13.346;2024-03-22T02:19:42;101508.00;;;12.60
15845;BMP180;50807;52.436;13.346;2024-03-22T02:20:13;101510.00;;;12.60
15845;BMP180;50807;52.436;13.346;2024-03-22T02:20:43;101494.00;;;12.60
15845;BMP180;50807;52.436;13.346;2024-03-22T02:21:14;101512.00;;;12.60
15845;BMP180;50807;52.436;13.346;2024-03-22T02:21:45;101512.00;;;12.60
15845;BMP180;50807;52.436;13.346;2024-03-22T02:22:16;101518.00;;;12.60
15845;BMP180;50807;52.436;13.346;2024-03-22T02:22:47;101512.00;;;12.60
15845;BMP180;50807;52.436;13.346;2024-03-22T02:23:32;101515.00;;;12.50
15845;BMP180;50807;52.436;13.346;2024-03-22T02:24:03;101499.00;;;12.50
15845;BMP180;50807;52.436;13.346;2024-03-22T02:24:34;101503.00;;;12.50
15845;BMP180;50807;52.436;13.346;2024-03-22T02:25:05;101509.00;;;12.60
15845;BMP180;50807;52.436;13.346;2024-03-22T02:25:38;101505.00;;;12.60
15845;BMP180;50807;52.436;13.346;2024-03-22T02:26:09;101509.00;;;12.60
15845;BMP180;50807;52.436;13.346;2024-03-22T02:26:39;101497.00;;;12.60
15845;BMP180;50807;52.436;13.346;2024-03-22T02:27:10;101510.00;;;12.60
15845;BMP180;50807;52.436;13.346;2024-03-22T02:27:41;101510.00;;;12.60
15845;BMP180;50807;52.436;13.346;2024-03-22T02:28:12;101503.00;;;12.60
15845;BMP180;50807;52.436;13.346;2024-03-22T02:28:43;101500.00;;;12.60
15845;BMP180;50807;52.436;13.346;2024-03-22T02:29:13;101497.00;;;12.60
15845;BMP180;50807;52.436;13.346;2024-03-22T02:29:45;101503.00;;;12.60
15845;BMP180;50807;52.436;13.346;2024-03-22T02:30:16;101498.00;;;12.60
15845;BMP180;50807;52.436;13.346;2024-03-22T02:30:47;101481.00;;;12.60
15845;BMP180;50807;52.436;13.346;2024-03-22T02:31:18;101490.00;;;12.60
15845;BMP180;50807;52.436;13.346;2024-03-22T02:31:50;101494.00;;;12.60
15845;BMP180;50807;52.436;13.346;2024-03-22T02:32:21;101482.00;;;12.60
15845;BMP180;50807;52.436;13.346;2024-03-22T02:32:53;101486.00;;;12.60
15845;BMP180;50807;52.436;13.346;2024-03-22T02:33:24;101483.00;;;12.60
15845;BMP180;50807;52.436;13.346;2024-03-22T02:33:55;101491.00;;;12.50
15845;BMP180;50807;52.436;13.346;2024-03-22T02:34:26;101484.00;;;12.50
15845;BMP180;50807;52.436;13.346;2024-03-22T02:34:56;101487.00;;;12.60
15845;BMP180;50807;52.436;13.346;2024-03-22T02:35:27;101488.00;;;12.50
15845;BMP180;50807;52.436;13.346;2024-03-22T02:35:58;101485.00;;;12.50
15845;BMP180;50807;52.436;13.346;2024-03-22T02:36:29;101482.00;;;12.50
15845;BMP180;50807;52.436;13.346;2024-03-22T02:37:00;101479.00;;;12.50
15845;BMP180;50807;52.436;13.346;2024-03-22T02:37:31;101480.00;;;12.50
15845;BMP180;50807;52.436;13.346;2024-03-22T02:38:03;101482.00;;;12.50
15845;BMP180;50807;52.436;13.346;2024-03-22T02:38:35;101471.00;;;12.50
15845;BMP180;50807;52.436;13.346;2024-03-22T02:39:06;101475.00;;;12.50
15845;BMP180;50807;52.436;13.346;2024-03-22T02:39:37;101471.00;;;12.50
15845;BMP180;50807;52.436;13.346;2024-03-22T02:40:09;101475.00;;;12.50
15845;BMP180;50807;52.436;13.346;2024-03-22T02:40:42;101479.00;;;12.50
15845;BMP180;50807;52.436;13.346;2024-03-22T02:41:13;101476.00;;;12.50
15845;BMP180;50807;52.436;13.346;2024-03-22T02:41:44;101474.00;;;12.50
15845;BMP180;50807;52.436;13.346;2024-03-22T02:42:15;101471.00;;;12.50
15845;BMP180;50807;52.436;13.346;2024-03-22T02:42:46;101471.00;;;12.40
15845;BMP180;50807;52.436;13.346;2024-03-22T02:43:16;101475.00;;;12.40
15845;BMP180;50807;52.436;13.346;2024-03-22T02:43:48;101476.00;;;12.50
15845;BMP180;50807;52.436;13.346;2024-03-22T02:44:19;101464.00;;;12.50
15845;BMP180;50807;52.436;13.346;2024-03-22T02:44:50;101471.00;;;12.50
15845;BMP180;50807;52.436;13.346;2024-03-22T02:45:21;101472.00;;;12.50
15845;BMP180;50807;52.436;13.346;2024-03-22T02:45:52;101478.00;;;12.50
15845;BMP180;50807;52.436;13.346;2024-03-22T02:46:23;101468.00;;;12.50
15845;BMP180;50807;52.436;13.346;2024-03-22T02:46:53;101472.00;;;12.50
15845;BMP180;50807;52.436;13.346;2024-03-22T02:47:24;101474.00;;;12.50
15845;BMP180;50807;52.436;13.346;2024-03-22T02:47:55;101471.00;;;12.50
15845;BMP180;50807;52.436;13.346;2024-03-22T02:48:26;101466.00;;;12.50
15845;BMP180;50807;52.436;13.346;2024-03-22T02:48:59;101473.00;;;12.50
15845;BMP180;50807;52.436;13.346;2024-03-22T02:49:29;101469.00;;;12.50
15845;BMP180;50807;52.436;13.346;2024-03-22T02:50:00;101473.00;;;12.50
15845;BMP180;50807;52.436;13.346;2024-03-22T02:50:33;101459.00;;;12.50
15845;BMP180;50807;52.436;13.346;2024-03-22T02:51:04;101472.00;;;12.50
15845;BMP180;50807;52.436;13.346;2024-03-22T02:51:35;101468.00;;;12.50
15845;BMP180;50807;52.436;13.346;2024-03-22T02:52:06;101477.00;;;12.50
15845;BMP180;50807;52.436;13.346;2024-03-22T02:52:37;101469.00;;;12.50
15845;BMP180;50807;52.436;13.346;2024-03-22T02:53:08;101470.00;;;12.50
15845;BMP180;50807;52.436;13.346;2024-03-22T02:53:41;101469.00;;;12.50
15845;BMP180;50807;52.436;13.346;2024-03-22T02:54:11;101474.00;;;12.50
15845;BMP180;50807;52.436;13.346;2024-03-22T02:54:42;101466.00;;;12.50